createdAt,value
2017-10-25T00:01:50.804Z,31.80
2017-10-25T00:04:24.668Z,36.30
2017-10-25T00:06:58.275Z,41.50
2017-10-25T00:09:32.202Z,39.20
2017-10-25T00:12:05.918Z,38.23
2017-10-25T00:14:40.016Z,40.43
2017-10-25T00:17:14.440Z,42.43
2017-10-25T00:19:48.194Z,44.37
2017-10-25T00:22:21.977Z,40.93
2017-10-25T00:24:55.761Z,40.57
2017-10-25T00:27:29.446Z,38.87
2017-10-25T00:30:03.716Z,36.77
2017-10-25T00:32:38.264Z,34.67
2017-10-25T00:35:12.632Z,33.83
2017-10-25T00:37:46.401Z,38.80
2017-10-25T00:40:20.092Z,35.67
2017-10-25T00:42:54.058Z,39.13
2017-10-25T00:45:27.833Z,37.37
2017-10-25T00:48:01.611Z,38.97
2017-10-25T00:50:35.427Z,37.30
2017-10-25T00:53:09.145Z,39.73
2017-10-25T00:55:43.022Z,38.67
2017-10-25T00:58:16.855Z,37.97
2017-10-25T01:00:51.414Z,39.73
2017-10-25T01:03:25.137Z,38.67
2017-10-25T01:05:59.066Z,38.50
2017-10-25T01:08:32.842Z,39.03
2017-10-25T01:11:07.354Z,40.03
2017-10-25T01:13:41.176Z,39.53
2017-10-25T01:16:14.967Z,42.70
2017-10-25T01:18:48.607Z,40.83
2017-10-25T01:21:22.300Z,40.10
2017-10-25T01:23:56.077Z,43.17
2017-10-25T01:26:31.427Z,42.60
2017-10-25T01:29:06.082Z,47.30
2017-10-25T01:31:39.846Z,37.47
2017-10-25T01:34:13.589Z,42.60
2017-10-25T01:36:47.356Z,43.33
2017-10-25T01:39:21.926Z,41.67
2017-10-25T01:41:55.720Z,40.10
2017-10-25T01:44:29.554Z,44.70
2017-10-25T01:47:03.235Z,43.30
2017-10-25T01:49:37.013Z,36.60
2017-10-25T01:52:10.837Z,39.13
2017-10-25T01:54:44.708Z,38.60
2017-10-25T01:57:18.638Z,43.37
2017-10-25T01:59:52.413Z,41.20
2017-10-25T02:02:26.361Z,39.87
2017-10-25T02:05:00.187Z,39.90
2017-10-25T02:07:34.982Z,39.50
2017-10-25T02:10:08.618Z,43.13
2017-10-25T02:12:42.290Z,41.30
2017-10-25T02:15:16.185Z,39.60
2017-10-25T02:17:50.710Z,39.57
2017-10-25T02:20:24.402Z,43.20
2017-10-25T02:22:58.119Z,37.00
2017-10-25T02:25:31.925Z,35.50
2017-10-25T02:28:05.733Z,37.77
2017-10-25T02:30:40.405Z,33.83
2017-10-25T02:33:14.206Z,32.07
2017-10-25T02:35:48.076Z,38.80
2017-10-25T02:38:21.861Z,36.73
2017-10-25T02:40:56.297Z,25.73
2017-10-25T02:43:30.729Z,28.73
2017-10-25T02:46:05.109Z,24.03
2017-10-25T02:48:38.933Z,26.70
2017-10-25T02:51:12.772Z,21.73
2017-10-25T02:53:46.574Z,22.00
2017-10-25T02:56:20.977Z,22.07
2017-10-25T02:58:54.791Z,21.00
2017-10-25T03:01:28.474Z,22.70
2017-10-25T03:04:02.196Z,18.10
2017-10-25T03:06:36.034Z,19.70
2017-10-25T03:09:10.561Z,22.50
2017-10-25T03:11:44.469Z,27.80
2017-10-25T03:14:19.340Z,21.27
2017-10-25T03:16:54.619Z,23.33
2017-10-25T03:19:28.457Z,21.77
2017-10-25T03:22:02.239Z,20.30
2017-10-25T03:24:35.990Z,24.20
2017-10-25T03:27:11.318Z,26.17
2017-10-25T03:29:44.982Z,24.30
2017-10-25T03:32:18.769Z,23.33
2017-10-25T03:34:52.598Z,26.03
2017-10-25T03:37:26.357Z,26.87
2017-10-25T03:40:00.101Z,24.00
2017-10-25T03:42:34.558Z,24.70
2017-10-25T03:45:08.263Z,25.60
2017-10-25T03:47:42.091Z,24.90
2017-10-25T03:50:15.777Z,25.87
2017-10-25T03:52:50.297Z,24.47
2017-10-25T03:55:24.859Z,29.67
2017-10-25T03:57:59.366Z,26.47
2017-10-25T04:00:33.112Z,30.90
2017-10-25T04:03:06.945Z,25.40
2017-10-25T04:05:40.582Z,23.70
2017-10-25T04:08:14.327Z,26.57
2017-10-25T04:10:48.909Z,23.67
2017-10-25T04:13:22.689Z,28.90
2017-10-25T04:15:56.369Z,24.27
2017-10-25T04:18:30.196Z,21.97
2017-10-25T04:21:03.981Z,25.47
2017-10-25T04:23:37.810Z,23.83
2017-10-25T04:26:12.400Z,24.63
2017-10-25T04:28:46.749Z,23.83
2017-10-25T04:31:20.455Z,25.47
2017-10-25T04:33:54.985Z,23.77
2017-10-25T04:36:28.895Z,21.93
2017-10-25T04:39:02.673Z,24.10
2017-10-25T04:41:36.458Z,21.10
2017-10-25T04:44:10.224Z,22.87
2017-10-25T04:46:44.137Z,22.73
2017-10-25T04:49:17.946Z,22.23
2017-10-25T04:51:51.755Z,22.87
2017-10-25T04:54:25.453Z,19.93
2017-10-25T04:57:00.203Z,18.10
2017-10-25T04:59:33.888Z,21.13
2017-10-25T05:02:07.672Z,20.60
2017-10-25T05:04:41.336Z,17.03
2017-10-25T05:07:15.294Z,16.67
2017-10-25T05:09:49.072Z,18.43
2017-10-25T05:12:23.607Z,16.43
2017-10-25T05:14:57.457Z,16.93
2017-10-25T05:17:31.283Z,15.77
2017-10-25T05:20:06.595Z,12.03
2017-10-25T05:22:40.302Z,12.53
2017-10-25T05:25:14.893Z,12.50
2017-10-25T05:27:48.765Z,13.27
2017-10-25T05:30:22.404Z,13.10
2017-10-25T05:32:56.166Z,15.10
2017-10-25T05:35:30.145Z,12.37
2017-10-25T05:38:04.551Z,12.70
2017-10-25T05:40:38.457Z,13.83
2017-10-25T05:43:12.227Z,10.97
2017-10-25T05:45:46.122Z,12.00
2017-10-25T05:48:19.842Z,12.00
2017-10-25T05:50:53.608Z,11.10
2017-10-25T05:53:27.216Z,11.60
2017-10-25T05:56:01.721Z,11.70
2017-10-25T05:58:35.622Z,10.20
2017-10-25T06:01:09.165Z,16.93
2017-10-25T06:03:42.912Z,11.43
2017-10-25T06:06:17.330Z,14.13
2017-10-25T06:08:51.069Z,10.57
2017-10-25T06:11:24.928Z,12.00
2017-10-25T06:13:58.744Z,9.93
2017-10-25T06:16:32.866Z,10.77
2017-10-25T06:19:06.504Z,10.90
2017-10-25T06:21:40.343Z,12.83
2017-10-25T06:24:14.149Z,16.93
2017-10-25T06:26:47.989Z,13.47
2017-10-25T06:29:21.825Z,13.90
2017-10-25T06:31:55.547Z,13.17
2017-10-25T06:34:29.398Z,11.87
2017-10-25T06:37:03.224Z,12.73
2017-10-25T06:39:36.965Z,16.17
2017-10-25T06:42:10.858Z,11.03
2017-10-25T06:44:44.586Z,13.30
2017-10-25T06:47:18.437Z,11.27
2017-10-25T06:49:52.208Z,12.23
2017-10-25T06:52:26.861Z,13.80
2017-10-25T06:55:00.493Z,13.37
2017-10-25T06:57:35.206Z,13.00
2017-10-25T07:00:09.666Z,13.70
2017-10-25T07:02:43.400Z,18.70
2017-10-25T07:05:17.174Z,21.07
2017-10-25T07:07:51.018Z,14.47
2017-10-25T07:10:25.348Z,19.77
2017-10-25T07:12:59.237Z,23.50
2017-10-25T07:15:32.951Z,15.07
2017-10-25T07:18:06.697Z,14.37
2017-10-25T07:20:40.499Z,15.30
2017-10-25T07:23:14.348Z,17.77
2017-10-25T07:25:48.740Z,14.13
2017-10-25T07:28:22.536Z,14.90
2017-10-25T07:30:56.328Z,13.60
2017-10-25T07:33:30.158Z,16.50
2017-10-25T07:36:09.560Z,13.67
2017-10-25T07:38:44.241Z,11.97
2017-10-25T07:41:18.043Z,14.70
2017-10-25T07:43:52.624Z,15.97
2017-10-25T07:46:27.312Z,9.97
2017-10-25T07:49:02.248Z,11.90
2017-10-25T07:51:35.990Z,14.83
2017-10-25T07:54:09.771Z,10.90
2017-10-25T07:56:43.595Z,10.50
2017-10-25T07:59:18.090Z,10.93
2017-10-25T08:01:52.246Z,11.03
2017-10-25T08:04:26.105Z,11.77
2017-10-25T08:07:00.217Z,12.47
2017-10-25T08:09:34.129Z,13.40
2017-10-25T08:12:09.465Z,11.80
2017-10-25T08:14:44.857Z,10.87
2017-10-25T08:17:20.139Z,10.83
2017-10-25T08:19:54.000Z,14.80
2017-10-25T08:22:27.838Z,9.17
2017-10-25T08:25:03.210Z,12.43
2017-10-25T08:27:36.967Z,11.03
2017-10-25T08:30:11.417Z,9.83
2017-10-25T08:32:45.117Z,14.07
2017-10-25T08:35:20.663Z,9.87
2017-10-25T08:37:54.591Z,10.40
2017-10-25T08:40:28.268Z,9.50
2017-10-25T08:43:02.078Z,9.10
2017-10-25T08:45:35.879Z,8.90
2017-10-25T08:48:10.389Z,9.57
2017-10-25T08:50:44.965Z,14.70
2017-10-25T08:53:18.708Z,8.10
2017-10-25T08:55:52.451Z,14.63
2017-10-25T08:58:27.213Z,9.67
2017-10-25T09:01:01.891Z,8.17
2017-10-25T09:03:35.677Z,8.80
2017-10-25T09:06:09.495Z,8.83
2017-10-25T09:08:43.186Z,8.57
2017-10-25T09:11:16.960Z,8.20
2017-10-25T09:13:50.768Z,7.17
2017-10-25T09:16:24.557Z,10.93
2017-10-25T09:18:58.287Z,8.97
2017-10-25T09:21:32.071Z,6.43
2017-10-25T09:24:06.730Z,9.80
2017-10-25T09:26:40.506Z,6.53
2017-10-25T09:29:14.357Z,8.13
2017-10-25T09:31:48.214Z,5.80
2017-10-25T09:34:22.030Z,6.20
2017-10-25T09:36:55.904Z,12.30
2017-10-25T09:39:29.763Z,7.67
2017-10-25T09:42:03.565Z,6.40
2017-10-25T09:44:37.335Z,8.37
2017-10-25T09:47:11.213Z,7.90
2017-10-25T09:49:44.902Z,6.23
2017-10-25T09:52:18.733Z,14.20
2017-10-25T09:54:57.500Z,9.83
2017-10-25T09:57:33.416Z,6.90
2017-10-25T10:00:07.212Z,7.07
2017-10-25T10:02:40.929Z,6.13
2017-10-25T10:05:15.479Z,9.03
2017-10-25T10:07:49.257Z,10.53
2017-10-25T10:10:23.082Z,11.80
2017-10-25T10:12:56.980Z,6.33
2017-10-25T10:15:30.667Z,8.47
2017-10-25T10:18:04.474Z,6.90
2017-10-25T10:20:38.242Z,10.20
2017-10-25T10:23:12.562Z,7.90
2017-10-25T10:25:46.455Z,8.80
2017-10-25T10:28:20.466Z,9.83
2017-10-25T10:30:54.410Z,9.10
2017-10-25T10:33:28.162Z,13.07
2017-10-25T10:36:01.921Z,12.83
2017-10-25T10:38:35.616Z,8.80
2017-10-25T10:41:09.456Z,12.87
2017-10-25T10:43:43.146Z,12.00
2017-10-25T10:46:16.860Z,12.40
2017-10-25T10:48:50.640Z,15.87
2017-10-25T10:51:24.436Z,9.23
2017-10-25T10:53:58.269Z,17.40
2017-10-25T10:56:32.107Z,27.90
2017-10-25T10:59:06.679Z,19.60
2017-10-25T11:01:40.532Z,12.17
2017-10-25T11:04:14.303Z,15.20
2017-10-25T11:06:47.981Z,15.90
2017-10-25T11:09:21.777Z,10.03
2017-10-25T11:11:55.605Z,23.90
2017-10-25T11:14:29.488Z,7.73
2017-10-25T11:17:03.106Z,11.80
2017-10-25T11:19:37.858Z,10.13
2017-10-25T11:22:11.558Z,12.57
2017-10-25T11:24:46.135Z,7.60
2017-10-25T11:27:21.302Z,8.83
2017-10-25T11:29:55.005Z,7.83
2017-10-25T11:32:29.434Z,10.93
2017-10-25T11:35:03.334Z,9.63
2017-10-25T11:37:37.068Z,15.67
2017-10-25T11:40:10.900Z,12.00
2017-10-25T11:42:44.651Z,8.10
2017-10-25T11:45:18.311Z,8.67
2017-10-25T11:47:52.159Z,7.50
2017-10-25T11:50:26.655Z,7.77
2017-10-25T11:53:00.413Z,8.03
2017-10-25T11:55:34.254Z,7.93
2017-10-25T11:58:08.102Z,9.47
2017-10-25T12:00:41.785Z,13.50
2017-10-25T12:03:15.574Z,14.97
2017-10-25T12:05:50.127Z,19.13
2017-10-25T12:08:23.877Z,10.30
2017-10-25T12:10:58.561Z,12.80
2017-10-25T12:13:32.321Z,11.27
2017-10-25T12:16:06.053Z,9.93
2017-10-25T12:18:39.677Z,11.10
2017-10-25T12:21:13.381Z,8.73
2017-10-25T12:23:47.078Z,11.87
2017-10-25T12:26:20.858Z,9.23
2017-10-25T12:28:54.618Z,9.10
2017-10-25T12:31:28.338Z,10.20
2017-10-25T12:34:02.245Z,15.23
2017-10-25T12:36:36.002Z,14.50
2017-10-25T12:39:09.845Z,24.07
2017-10-25T12:41:43.536Z,27.93
2017-10-25T12:44:18.083Z,35.03
2017-10-25T12:46:51.982Z,28.07
2017-10-25T12:49:25.841Z,39.20
2017-10-25T12:51:59.768Z,21.60
2017-10-25T12:54:33.532Z,25.77
2017-10-25T12:57:07.393Z,14.10
2017-10-25T12:59:41.273Z,31.97
2017-10-25T13:02:14.975Z,23.70
2017-10-25T13:04:48.976Z,10.20
2017-10-25T13:07:24.105Z,11.10
2017-10-25T13:09:57.930Z,8.63
2017-10-25T13:12:32.790Z,10.47
2017-10-25T13:15:08.081Z,11.60
2017-10-25T13:17:43.156Z,12.67
2017-10-25T13:20:16.968Z,15.77
2017-10-25T13:22:50.814Z,10.10
2017-10-25T13:25:24.557Z,9.23
2017-10-25T13:27:58.328Z,11.60
2017-10-25T13:30:33.117Z,14.13
2017-10-25T13:33:06.964Z,11.70
2017-10-25T13:35:40.709Z,12.97
2017-10-25T13:38:14.401Z,13.40
2017-10-25T13:40:48.198Z,11.37
2017-10-25T13:43:22.041Z,13.27
2017-10-25T13:45:55.837Z,12.17
2017-10-25T13:48:29.618Z,13.73
2017-10-25T13:51:04.070Z,14.60
2017-10-25T13:53:37.932Z,15.63
2017-10-25T13:56:11.748Z,14.90
2017-10-25T13:58:45.521Z,10.73
2017-10-25T14:01:19.257Z,14.00
2017-10-25T14:03:53.785Z,14.77
2017-10-25T14:06:27.496Z,12.73
2017-10-25T14:09:01.291Z,11.67
2017-10-25T14:11:35.101Z,15.20
2017-10-25T14:14:09.358Z,14.20
2017-10-25T14:16:43.351Z,15.57
2017-10-25T14:19:17.183Z,17.63
2017-10-25T14:21:51.086Z,17.20
2017-10-25T14:24:25.565Z,14.63
2017-10-25T14:27:11.297Z,31.03
2017-10-25T14:29:45.226Z,16.97
2017-10-25T14:32:19.198Z,15.73
2017-10-25T14:34:52.922Z,17.27
2017-10-25T14:37:26.830Z,16.17
2017-10-25T14:40:00.457Z,15.30
2017-10-25T14:42:33.981Z,20.60
2017-10-25T14:45:08.213Z,19.93
2017-10-25T14:47:41.851Z,14.57
2017-10-25T14:50:15.716Z,16.47
2017-10-25T14:52:49.873Z,17.73
2017-10-25T14:55:24.017Z,18.20
2017-10-25T14:57:59.333Z,18.67
2017-10-25T15:00:33.638Z,19.33
2017-10-25T15:03:07.993Z,15.40
2017-10-25T15:05:41.813Z,15.37
2017-10-25T15:08:15.613Z,15.90
2017-10-25T15:10:49.518Z,11.40
2017-10-25T15:13:23.184Z,12.63
2017-10-25T15:15:57.866Z,14.00
2017-10-25T15:18:32.434Z,13.87
2017-10-25T15:21:06.197Z,9.67
2017-10-25T15:23:39.942Z,13.73
2017-10-25T15:26:13.580Z,11.20
2017-10-25T15:28:47.405Z,12.73
2017-10-25T15:31:21.954Z,11.83
2017-10-25T15:33:55.850Z,11.90
2017-10-25T15:36:29.597Z,10.93
2017-10-25T15:39:03.418Z,7.50
2017-10-25T15:41:37.920Z,7.50
2017-10-25T15:44:12.486Z,7.60
2017-10-25T15:46:47.135Z,17.60
2017-10-25T15:49:20.891Z,12.00
2017-10-25T15:51:54.600Z,8.93
2017-10-25T15:54:28.453Z,9.97
2017-10-25T15:57:02.310Z,11.50
2017-10-25T15:59:35.972Z,12.60
2017-10-25T16:02:10.630Z,11.13
2017-10-25T16:04:44.487Z,11.90
2017-10-25T16:07:19.074Z,16.50
2017-10-25T16:09:52.850Z,14.63
2017-10-25T16:12:27.492Z,16.10
2017-10-25T16:15:01.209Z,17.63
2017-10-25T16:17:34.999Z,20.23
2017-10-25T16:20:08.748Z,23.37
2017-10-25T16:22:42.512Z,21.90
2017-10-25T16:25:16.403Z,19.30
2017-10-25T16:27:50.905Z,21.70
2017-10-25T16:30:24.718Z,19.43
2017-10-25T16:32:58.472Z,20.13
2017-10-25T16:35:32.954Z,19.00
2017-10-25T16:38:07.418Z,19.53
2017-10-25T16:40:41.524Z,19.03
2017-10-25T16:43:15.295Z,20.30
2017-10-25T16:45:49.625Z,19.27
2017-10-25T16:48:24.236Z,20.50
2017-10-25T16:50:57.939Z,21.93
2017-10-25T16:53:31.714Z,20.63
2017-10-25T16:56:05.582Z,22.20
2017-10-25T16:58:39.445Z,26.10
2017-10-25T17:01:13.970Z,21.13
2017-10-25T17:03:47.741Z,21.07
2017-10-25T17:06:22.219Z,20.70
2017-10-25T17:08:55.922Z,24.17
2017-10-25T17:11:30.444Z,18.10
2017-10-25T17:14:04.078Z,28.23
2017-10-25T17:16:37.768Z,28.43
2017-10-25T17:19:11.659Z,17.53
2017-10-25T17:21:45.391Z,18.03
2017-10-25T17:24:19.172Z,20.63
2017-10-25T17:26:53.001Z,21.23
2017-10-25T17:29:26.801Z,24.17
2017-10-25T17:32:00.504Z,20.37
2017-10-25T17:34:34.286Z,18.50
2017-10-25T17:37:09.568Z,20.90
2017-10-25T17:39:43.261Z,23.70
2017-10-25T17:42:17.192Z,21.10
2017-10-25T17:44:51.739Z,24.47
2017-10-25T17:47:25.713Z,24.50
2017-10-25T17:49:59.387Z,19.70
2017-10-25T17:52:33.232Z,22.33
2017-10-25T17:55:06.986Z,24.63
2017-10-25T17:57:40.720Z,16.40
2017-10-25T18:00:14.644Z,20.73
2017-10-25T18:08:34.617Z,22.33
2017-10-25T18:11:08.475Z,22.80
2017-10-25T18:13:45.168Z,22.30
2017-10-25T18:16:22.452Z,18.00
2017-10-25T18:18:57.047Z,26.83
2017-10-25T18:21:30.867Z,20.67
2017-10-25T18:24:04.639Z,24.30
2017-10-25T18:26:38.510Z,23.83
2017-10-25T18:29:13.378Z,26.37
2017-10-25T18:31:47.560Z,30.93
2017-10-25T18:34:22.299Z,20.80
2017-10-25T18:36:58.479Z,19.80
2017-10-25T18:39:33.065Z,18.97
2017-10-25T18:42:06.768Z,21.93
2017-10-25T18:44:40.698Z,24.37
2017-10-25T18:47:15.115Z,30.17
2017-10-25T18:49:49.001Z,23.30
2017-10-25T18:52:23.360Z,25.50
2017-10-25T18:54:58.169Z,24.77
2017-10-25T18:57:31.948Z,30.17
2017-10-25T19:00:05.882Z,32.40
2017-10-25T19:02:39.636Z,27.23
2017-10-25T19:05:13.571Z,29.63
2017-10-25T19:07:52.060Z,27.20
2017-10-25T19:10:26.189Z,32.43
2017-10-25T19:13:00.086Z,28.50
2017-10-25T19:15:33.811Z,24.17
2017-10-25T19:18:08.145Z,33.43
2017-10-25T19:20:41.910Z,30.63
2017-10-25T19:23:19.711Z,30.50
2017-10-25T19:25:53.499Z,31.60
2017-10-25T19:28:28.526Z,33.00
2017-10-25T19:31:02.389Z,37.10
2017-10-25T19:33:38.912Z,31.90
2017-10-25T19:36:13.305Z,32.10
2017-10-25T19:38:47.598Z,38.27
2017-10-25T19:41:21.730Z,33.97
2017-10-25T19:43:55.573Z,37.87
2017-10-25T19:46:29.622Z,33.07
2017-10-25T19:49:03.438Z,37.00
2017-10-25T19:51:38.067Z,31.33
2017-10-25T19:54:12.107Z,36.43
2017-10-25T19:56:46.745Z,31.00
2017-10-25T19:59:20.472Z,33.37
2017-10-25T20:01:54.201Z,31.77
2017-10-25T20:04:27.951Z,38.70
2017-10-25T20:07:04.904Z,34.23
2017-10-25T20:09:38.800Z,33.70
2017-10-25T20:12:13.297Z,35.90
2017-10-25T20:14:47.132Z,35.50
2017-10-25T20:17:21.594Z,40.07
2017-10-25T20:19:56.599Z,34.47
2017-10-25T20:22:31.253Z,39.57
2017-10-25T20:25:06.358Z,34.00
2017-10-25T20:27:40.918Z,37.33
2017-10-25T20:30:14.868Z,36.57
2017-10-25T20:32:49.635Z,39.00
2017-10-25T20:35:24.378Z,40.70
2017-10-25T20:37:58.026Z,38.70
2017-10-25T20:40:31.937Z,36.93
2017-10-25T20:43:06.416Z,40.23
2017-10-25T20:45:40.224Z,37.60
2017-10-25T20:48:14.686Z,39.30
2017-10-25T20:50:48.462Z,38.50
2017-10-25T20:53:25.165Z,37.03
2017-10-25T20:55:58.965Z,38.77
2017-10-25T20:58:32.707Z,45.33
2017-10-25T21:01:07.165Z,31.37
2017-10-25T21:03:41.081Z,40.90
2017-10-25T21:06:14.950Z,39.13
2017-10-25T21:08:48.854Z,37.10
2017-10-25T21:11:22.463Z,42.03
2017-10-25T21:13:56.342Z,44.97
2017-10-25T21:16:30.230Z,45.00
2017-10-25T21:19:03.952Z,43.20
2017-10-25T21:21:37.650Z,34.43
2017-10-25T21:24:11.493Z,45.10
2017-10-25T21:26:45.428Z,46.47
2017-10-25T21:29:19.093Z,39.30
2017-10-25T21:31:53.806Z,38.97
2017-10-25T21:34:27.463Z,36.13
2017-10-25T21:37:01.200Z,44.33
2017-10-25T21:39:35.021Z,43.53
2017-10-25T21:42:08.689Z,36.87
2017-10-25T21:44:42.413Z,38.10
2017-10-25T21:47:16.320Z,37.00
2017-10-25T21:49:50.958Z,37.07
2017-10-25T21:52:25.570Z,38.30
2017-10-25T21:54:59.230Z,44.77
2017-10-25T21:57:33.752Z,43.83
2017-10-25T22:00:07.756Z,40.90
2017-10-25T22:02:42.282Z,38.20
2017-10-25T22:05:16.813Z,40.13
2017-10-25T22:07:50.702Z,38.27
2017-10-25T22:10:24.521Z,38.00
2017-10-25T22:12:58.303Z,45.80
2017-10-25T22:15:33.154Z,42.27
2017-10-25T22:18:14.810Z,42.40
2017-10-25T22:20:50.388Z,39.47
2017-10-25T22:23:24.245Z,37.60
2017-10-25T22:25:57.982Z,36.50
2017-10-25T22:28:31.813Z,32.93
2017-10-25T22:31:05.581Z,37.97
2017-10-25T22:33:39.221Z,29.03
2017-10-25T22:36:13.362Z,26.43
2017-10-25T22:38:48.262Z,29.70
2017-10-25T22:41:22.794Z,28.00
2017-10-25T22:43:56.702Z,28.40
2017-10-25T22:46:30.569Z,26.93
2017-10-25T22:49:05.162Z,24.50
2017-10-25T22:51:39.887Z,24.20
2017-10-25T22:54:15.170Z,20.93
2017-10-25T22:56:49.125Z,21.60
2017-10-25T22:59:22.929Z,26.60
2017-10-25T23:01:58.387Z,21.70
2017-10-25T23:04:32.103Z,22.83
2017-10-25T23:07:06.541Z,25.60
2017-10-25T23:09:40.629Z,19.30
2017-10-25T23:12:17.043Z,24.67
2017-10-25T23:14:51.016Z,24.90
2017-10-25T23:17:24.707Z,20.23
2017-10-25T23:19:58.531Z,28.80
2017-10-25T23:22:32.308Z,19.47
2017-10-25T23:25:06.031Z,19.57
2017-10-25T23:27:40.074Z,20.53
2017-10-25T23:30:14.533Z,17.70
2017-10-25T23:32:48.233Z,23.67
2017-10-25T23:35:22.062Z,23.83
2017-10-25T23:37:55.771Z,22.30
2017-10-25T23:40:30.304Z,25.20
2017-10-25T23:43:04.015Z,40.30
2017-10-25T23:45:37.950Z,23.80
2017-10-25T23:48:11.885Z,24.13
2017-10-25T23:50:45.635Z,26.13
2017-10-25T23:53:19.474Z,42.50
2017-10-25T23:55:53.308Z,27.20
2017-10-25T23:58:27.071Z,28.90
